Main page
METAR-TAF:

METAR-TAF

Airports :

Castres–Mazamet Airport

Castres, France

latitude: 43-33-25N, longitude: 2-17-21E, elevation: 239 m

Current weather observation

The report was made 36 minutes ago, at 01:00 UTC
Wind 8 kt from the West
Temperature 22°C
Humidity 83%
Pressure 1020 hPa
Visibility 10 km or more
Overcast at a height of 1200 ft

METAR: LFCK 220100Z AUTO 27008KT 9999 OVC012 22/19 Q1020

Time: 03:36 (01:36 UTC)

Forecast

The report was made 6 hours and 57 minutes ago, at 18:39 UTC
Forecast valid from 21 at 18 UTC to 22 at 03 UTC
Wind 10 kt from the North/Northwest
Visibility 10 km or more
no clouds below 1500 m and no cumulonimbus
Temporary
from 21 at 18 UTC to 21 at 21 UTC
Scattered clouds at a height of 3000 ft, Towering cumulus.
Probability 40% :
Temporary
from 21 at 18 UTC to 21 at 21 UTC
Visibility: 4000 m
Scattered clouds at a height of 5000 ft, Cumulonimbus.
thunderstorm, rain

TAF: LFCK 211839Z 2118/2203 34010KT CAVOK TEMPO 2118/2121 SCT030TCU PROB40 TEMPO 2118/2121 4000 TSRA SCT050CB

Weather observations and forecasts of more than 4000 airports (METAR and TAF reports).

The available stations are represented by yellow and red dots on the map.

Hover mouse over dot to see the name of the station.

Then click to see weather observations and forecasts.

To change the map : click on the green buttons with a black cross to zoom in, on the green button with a dash to zoom out, or on the green arrows for adjacent maps.


METAR-TAF: